createdAt,value
2024-05-09T00:00:42.705Z,7.54
2024-05-09T00:03:11.742Z,7.34
2024-05-09T00:05:44.126Z,7.50
2024-05-09T00:08:12.208Z,7.47
2024-05-09T00:10:40.651Z,6.98
2024-05-09T00:13:09.745Z,7.17
2024-05-09T00:15:37.433Z,7.38
2024-05-09T00:18:07.656Z,7.27
2024-05-09T00:20:39.216Z,7.16
2024-05-09T00:23:09.530Z,7.31
2024-05-09T00:25:37.918Z,7.29
2024-05-09T00:28:05.639Z,7.07
2024-05-09T00:30:35.697Z,7.24
2024-05-09T00:33:08.967Z,7.29
2024-05-09T00:35:37.478Z,6.87
2024-05-09T00:38:05.042Z,6.92
2024-05-09T00:40:41.966Z,6.98
2024-05-09T00:43:14.714Z,7.14
2024-05-09T00:45:42.908Z,7.08
2024-05-09T00:48:14.377Z,6.79
2024-05-09T00:50:45.108Z,7.19
2024-05-09T00:53:14.310Z,7.11
2024-05-09T00:55:42.094Z,6.91
2024-05-09T00:58:11.071Z,6.88
2024-05-09T01:00:40.339Z,7.07
2024-05-09T01:03:10.891Z,7.14
2024-05-09T01:05:40.237Z,6.96
2024-05-09T01:08:08.425Z,7.12
2024-05-09T01:10:36.605Z,6.98
2024-05-09T01:13:07.472Z,7.16
2024-05-09T01:15:35.820Z,7.06
2024-05-09T01:18:09.835Z,7.00
2024-05-09T01:20:42.067Z,7.02
2024-05-09T01:23:12.125Z,6.78
2024-05-09T01:25:39.911Z,6.52
2024-05-09T01:28:07.239Z,6.88
2024-05-09T01:30:36.618Z,6.70
2024-05-09T01:33:07.395Z,6.51
2024-05-09T01:35:36.376Z,6.66
2024-05-09T01:38:03.616Z,6.33
2024-05-09T01:40:37.261Z,6.68
2024-05-09T01:43:07.468Z,6.74
2024-05-09T01:45:34.504Z,6.46
2024-05-09T01:48:02.265Z,6.45
2024-05-09T01:50:37.888Z,6.41
2024-05-09T01:53:13.079Z,6.53
2024-05-09T01:55:40.959Z,6.54
2024-05-09T01:58:08.962Z,6.39
2024-05-09T02:00:40.505Z,6.41
2024-05-09T02:03:12.489Z,6.13
2024-05-09T02:05:42.839Z,6.34
2024-05-09T02:08:17.169Z,6.17
2024-05-09T02:10:44.986Z,6.16
2024-05-09T02:13:12.766Z,6.22
2024-05-09T02:15:39.854Z,6.25
2024-05-09T02:18:08.572Z,6.22
2024-05-09T02:20:38.234Z,5.93
2024-05-09T02:23:06.770Z,6.16
2024-05-09T02:25:34.766Z,5.78
2024-05-09T02:28:02.132Z,5.90
2024-05-09T02:30:38.343Z,5.92
2024-05-09T02:33:13.091Z,5.98
2024-05-09T02:35:41.655Z,5.82
2024-05-09T02:38:12.224Z,6.02
2024-05-09T02:40:40.277Z,5.96
2024-05-09T02:43:09.674Z,5.65
2024-05-09T02:45:37.972Z,5.81
2024-05-09T02:48:05.718Z,5.86
2024-05-09T02:50:38.082Z,5.86
2024-05-09T02:53:07.627Z,5.90
2024-05-09T02:55:34.767Z,5.30
2024-05-09T02:58:02.092Z,5.93
2024-05-09T03:00:37.182Z,5.99
2024-05-09T03:03:08.999Z,5.74
2024-05-09T03:05:37.469Z,5.93
2024-05-09T03:08:04.882Z,5.95
2024-05-09T03:10:36.270Z,5.82
2024-05-09T03:13:09.253Z,5.90
2024-05-09T03:15:36.686Z,5.99
2024-05-09T03:18:05.645Z,5.82
2024-05-09T03:20:35.411Z,5.99
2024-05-09T03:23:05.360Z,5.85
2024-05-09T03:25:32.823Z,5.97
2024-05-09T03:27:59.905Z,5.84
2024-05-09T03:30:38.886Z,5.64
2024-05-09T03:33:20.189Z,6.02
2024-05-09T03:35:48.719Z,5.67
2024-05-09T03:38:16.513Z,5.72
2024-05-09T03:40:48.872Z,5.98
2024-05-09T03:43:17.422Z,5.92
2024-05-09T03:45:45.093Z,5.66
2024-05-09T03:48:12.908Z,5.62
2024-05-09T03:50:40.113Z,5.72
2024-05-09T03:53:11.425Z,5.67
2024-05-09T03:55:38.459Z,5.88
2024-05-09T03:58:07.991Z,5.75
2024-05-09T04:00:38.911Z,5.77
2024-05-09T04:03:10.158Z,6.03
2024-05-09T04:05:43.113Z,6.06
2024-05-09T04:08:12.837Z,6.12
2024-05-09T04:10:40.518Z,6.18
2024-05-09T04:13:07.459Z,6.13
2024-05-09T04:15:35.569Z,5.86
2024-05-09T04:18:02.955Z,6.14
2024-05-09T04:20:37.679Z,6.50
2024-05-09T04:23:09.048Z,6.56
2024-05-09T04:25:37.393Z,6.59
2024-05-09T04:28:04.936Z,6.57
2024-05-09T04:30:37.999Z,6.74
2024-05-09T04:33:10.115Z,6.72
2024-05-09T04:35:39.219Z,7.03
2024-05-09T04:38:06.547Z,7.10
2024-05-09T04:40:36.361Z,7.11
2024-05-09T04:43:05.611Z,7.55
2024-05-09T04:45:33.143Z,7.50
2024-05-09T04:48:00.631Z,7.64
2024-05-09T04:52:57.838Z,7.92
2024-05-09T04:55:24.826Z,8.24
2024-05-09T04:57:51.700Z,8.38
2024-05-09T05:00:28.120Z,8.22
2024-05-09T05:02:59.760Z,8.67
2024-05-09T05:05:26.904Z,8.61
2024-05-09T05:07:53.915Z,8.89
2024-05-09T05:10:25.527Z,8.30
2024-05-09T05:13:15.098Z,9.05
2024-05-09T05:15:43.814Z,9.49
2024-05-09T05:18:10.866Z,9.62
2024-05-09T05:20:37.961Z,9.95
2024-05-09T05:23:12.459Z,10.62
2024-05-09T05:25:40.129Z,11.59
2024-05-09T05:28:07.081Z,12.33
2024-05-09T05:30:38.537Z,12.94
2024-05-09T05:33:06.903Z,14.34
2024-05-09T05:35:34.860Z,15.37
2024-05-09T05:38:02.810Z,16.38
2024-05-09T05:40:36.470Z,17.36
2024-05-09T05:43:06.367Z,18.60
2024-05-09T05:45:33.276Z,19.44
2024-05-09T05:48:02.883Z,20.54
2024-05-09T05:50:35.802Z,21.40
2024-05-09T05:53:08.610Z,22.32
2024-05-09T05:55:36.936Z,23.30
2024-05-09T05:58:04.027Z,24.18
2024-05-09T06:00:38.198Z,25.16
2024-05-09T06:03:08.464Z,25.90
2024-05-09T06:05:37.406Z,26.83
2024-05-09T06:08:04.914Z,27.57
2024-05-09T06:10:38.094Z,28.32
2024-05-09T06:13:07.865Z,29.03
2024-05-09T06:15:34.944Z,29.68
2024-05-09T06:18:02.201Z,30.52
2024-05-09T06:20:35.788Z,31.30
2024-05-09T06:23:06.967Z,32.14
2024-05-09T06:25:37.117Z,32.68
2024-05-09T06:28:04.458Z,33.49
2024-05-09T06:30:39.357Z,34.40
2024-05-09T06:33:10.861Z,35.06
2024-05-09T06:35:39.809Z,35.77
2024-05-09T06:38:09.464Z,36.37
2024-05-09T06:40:41.324Z,37.02
2024-05-09T06:43:13.478Z,37.74
2024-05-09T06:45:40.729Z,38.32
2024-05-09T06:48:09.274Z,38.91
2024-05-09T06:50:38.500Z,39.22
2024-05-09T06:53:09.825Z,40.09
2024-05-09T06:55:37.825Z,40.75
2024-05-09T06:58:11.756Z,41.21
2024-05-09T07:00:41.191Z,41.84
2024-05-09T07:03:16.042Z,42.30
2024-05-09T07:05:46.870Z,42.80
2024-05-09T07:08:14.918Z,43.07
2024-05-09T07:10:42.329Z,43.59
2024-05-09T07:13:13.586Z,43.92
2024-05-09T07:15:42.011Z,44.43
2024-05-09T07:18:10.703Z,44.72
2024-05-09T07:20:39.001Z,45.14
2024-05-09T07:23:09.403Z,45.48
2024-05-09T07:25:36.897Z,45.75
2024-05-09T07:28:04.133Z,45.97
2024-05-09T07:30:34.256Z,46.40
2024-05-09T07:33:03.128Z,46.63
2024-05-09T07:35:31.254Z,46.82
2024-05-09T07:37:58.778Z,47.15
2024-05-09T07:40:33.122Z,47.52
2024-05-09T07:43:04.571Z,47.89
2024-05-09T07:45:48.053Z,48.10
2024-05-09T07:52:37.306Z,48.66
2024-05-09T07:53:49.391Z,49.02
2024-05-09T07:56:21.868Z,49.17
2024-05-09T07:58:51.746Z,49.28
2024-05-09T08:01:19.662Z,49.45
2024-05-09T08:03:49.068Z,49.67
2024-05-09T08:06:16.291Z,49.87
2024-05-09T08:08:43.200Z,49.95
2024-05-09T08:11:10.163Z,50.20
2024-05-09T08:13:37.321Z,50.26
2024-05-09T08:16:04.617Z,50.43
2024-05-09T08:18:31.889Z,50.57
2024-05-09T08:20:59.094Z,50.64
2024-05-09T08:23:26.033Z,50.91
2024-05-09T08:25:55.777Z,50.96
2024-05-09T08:28:22.837Z,51.19
2024-05-09T08:30:50.176Z,51.23
2024-05-09T08:33:17.370Z,51.33
2024-05-09T08:35:44.416Z,51.29
2024-05-09T08:38:11.522Z,51.33
2024-05-09T08:40:38.711Z,51.39
2024-05-09T08:43:11.686Z,51.70
2024-05-09T08:45:43.610Z,51.72
2024-05-09T08:48:13.539Z,51.84
2024-05-09T08:50:41.424Z,51.96
2024-05-09T08:53:09.145Z,52.01
2024-05-09T08:55:40.494Z,52.03
2024-05-09T08:58:15.431Z,52.15
2024-05-09T09:00:44.345Z,52.23
2024-05-09T09:03:19.709Z,52.20
2024-05-09T09:06:03.671Z,52.16
2024-05-09T09:08:30.786Z,51.92
2024-05-09T09:11:01.061Z,52.01
2024-05-09T09:13:28.051Z,51.95
2024-05-09T09:15:58.887Z,51.96
2024-05-09T09:18:27.114Z,52.02
2024-05-09T09:20:54.356Z,51.83
2024-05-09T09:23:21.654Z,51.96
2024-05-09T09:25:48.590Z,51.88
2024-05-09T09:28:15.974Z,52.01
2024-05-09T09:30:43.578Z,52.00
2024-05-09T09:33:11.268Z,51.94
2024-05-09T09:35:40.815Z,51.86
2024-05-09T09:38:10.608Z,51.61
2024-05-09T09:40:46.550Z,51.64
2024-05-09T09:43:20.747Z,51.64
2024-05-09T09:45:53.329Z,51.42
2024-05-09T09:48:22.863Z,51.15
2024-05-09T09:50:51.992Z,51.07
2024-05-09T09:53:19.896Z,50.78
2024-05-09T09:55:47.330Z,50.77
2024-05-09T09:58:16.527Z,50.61
2024-05-09T10:00:44.288Z,50.55
2024-05-09T10:03:11.732Z,50.35
2024-05-09T10:05:42.049Z,50.29
2024-05-09T10:08:12.396Z,50.27
2024-05-09T10:10:40.119Z,50.08
2024-05-09T10:13:08.682Z,49.98
2024-05-09T10:15:46.602Z,50.23
2024-05-09T10:18:14.634Z,49.91
2024-05-09T10:20:46.151Z,49.90
2024-05-09T10:23:30.048Z,49.93
2024-05-09T10:26:06.494Z,49.67
2024-05-09T10:28:37.675Z,49.24
2024-05-09T10:31:13.169Z,49.38
2024-05-09T10:33:52.043Z,49.23
2024-05-09T10:36:21.056Z,48.79
2024-05-09T10:38:52.809Z,48.68
2024-05-09T10:41:21.467Z,48.37
2024-05-09T10:43:48.951Z,48.16
2024-05-09T10:46:16.691Z,48.03
2024-05-09T10:48:44.695Z,47.79
2024-05-09T10:51:12.145Z,47.53
2024-05-09T10:53:47.153Z,47.64
2024-05-09T10:56:14.740Z,47.23
2024-05-09T10:58:42.170Z,47.12
2024-05-09T11:01:10.615Z,46.90
2024-05-09T11:03:38.825Z,46.79
2024-05-09T11:06:06.802Z,46.51
2024-05-09T11:08:35.263Z,46.23
2024-05-09T11:11:07.334Z,46.22
2024-05-09T11:13:36.704Z,45.88
2024-05-09T11:16:05.415Z,45.58
2024-05-09T11:18:36.593Z,45.53
2024-05-09T11:21:14.470Z,45.44
2024-05-09T11:23:41.840Z,45.00
2024-05-09T11:26:10.517Z,44.85
2024-05-09T11:28:37.487Z,44.62
2024-05-09T11:31:09.860Z,44.66
2024-05-09T11:33:39.467Z,44.45
2024-05-09T11:36:08.046Z,44.14
2024-05-09T11:38:35.462Z,43.54
2024-05-09T11:41:03.530Z,43.45
2024-05-09T11:43:30.618Z,42.71
2024-05-09T11:45:58.349Z,42.73
2024-05-09T11:48:26.166Z,42.25
2024-05-09T11:50:54.947Z,42.02
2024-05-09T11:53:22.049Z,41.42
2024-05-09T11:55:49.042Z,41.31
2024-05-09T11:58:18.203Z,41.05
2024-05-09T12:00:46.226Z,40.70
2024-05-09T12:03:13.697Z,40.13
2024-05-09T12:05:41.125Z,39.69
2024-05-09T12:08:08.414Z,39.09
2024-05-09T12:10:36.707Z,38.14
2024-05-09T12:13:06.191Z,37.71
2024-05-09T12:15:37.819Z,36.76
2024-05-09T12:18:06.729Z,36.01
2024-05-09T12:20:38.143Z,35.47
2024-05-09T12:23:09.487Z,34.89
2024-05-09T12:25:38.740Z,34.23
2024-05-09T12:28:06.492Z,33.13
2024-05-09T12:30:38.217Z,33.25
2024-05-09T12:33:12.732Z,32.11
2024-05-09T12:35:41.771Z,32.15
2024-05-09T12:38:10.023Z,31.54
2024-05-09T12:40:38.766Z,31.31
2024-05-09T12:43:08.065Z,30.92
2024-05-09T12:45:36.348Z,30.56
2024-05-09T12:48:04.928Z,29.70
2024-05-09T12:50:34.101Z,29.58
2024-05-09T12:53:02.749Z,29.07
2024-05-09T12:55:36.602Z,29.22
2024-05-09T12:58:08.986Z,28.48
2024-05-09T13:00:36.375Z,28.04
2024-05-09T13:03:03.752Z,27.67
2024-05-09T13:05:30.995Z,27.15
2024-05-09T13:07:58.118Z,26.81
2024-05-09T13:10:31.807Z,26.45
2024-05-09T13:13:01.645Z,25.69
2024-05-09T13:15:30.741Z,25.85
2024-05-09T13:18:00.574Z,25.49
2024-05-09T13:20:33.606Z,24.96
2024-05-09T13:23:04.654Z,24.80
2024-05-09T13:25:32.240Z,24.47
2024-05-09T13:27:59.266Z,24.11
2024-05-09T13:30:35.105Z,23.70
2024-05-09T13:33:07.368Z,23.24
2024-05-09T13:35:35.307Z,22.95
2024-05-09T13:38:03.195Z,22.57
2024-05-09T13:40:34.340Z,22.54
2024-05-09T13:43:04.908Z,22.25
2024-05-09T13:45:32.765Z,22.08
2024-05-09T13:48:00.208Z,22.09
2024-05-09T13:50:33.499Z,21.74
2024-05-09T13:53:03.445Z,21.49
2024-05-09T13:55:30.428Z,21.29
2024-05-09T13:57:57.535Z,20.98
2024-05-09T14:00:38.443Z,21.17
2024-05-09T14:03:11.476Z,21.10
2024-05-09T14:05:38.785Z,20.78
2024-05-09T14:08:06.235Z,20.90
2024-05-09T14:10:33.322Z,20.90
2024-05-09T14:13:01.365Z,20.81
2024-05-09T14:15:28.692Z,20.62
2024-05-09T14:17:55.885Z,20.68
2024-05-09T14:20:30.762Z,20.33
2024-05-09T14:23:02.228Z,20.77
2024-05-09T14:25:30.620Z,20.52
2024-05-09T14:27:58.301Z,20.58
2024-05-09T14:30:34.176Z,20.37
2024-05-09T14:33:05.113Z,20.23
2024-05-09T14:35:32.486Z,20.11
2024-05-09T14:37:59.533Z,20.05
2024-05-09T14:40:36.872Z,19.96
2024-05-09T14:43:10.196Z,19.62
2024-05-09T14:45:37.452Z,19.84
2024-05-09T14:48:05.474Z,19.97
2024-05-09T14:50:37.158Z,19.74
2024-05-09T14:53:07.603Z,19.32
2024-05-09T14:55:36.677Z,19.72
2024-05-09T14:58:07.001Z,19.48
2024-05-09T15:00:38.475Z,19.50
2024-05-09T15:03:07.237Z,19.34
2024-05-09T15:05:34.353Z,19.43
2024-05-09T15:08:01.396Z,19.09
2024-05-09T15:10:34.532Z,19.04
2024-05-09T15:13:03.873Z,18.96
2024-05-09T15:15:31.069Z,19.20
2024-05-09T15:17:58.462Z,18.79
2024-05-09T15:20:33.063Z,18.81
2024-05-09T15:23:03.556Z,19.02
2024-05-09T15:25:30.993Z,19.03
2024-05-09T15:27:58.163Z,18.75
2024-05-09T15:32:54.998Z,18.65
2024-05-09T15:35:22.086Z,18.50
2024-05-09T15:37:49.315Z,18.50
2024-05-09T15:40:26.090Z,18.58
2024-05-09T15:43:02.314Z,18.48
2024-05-09T15:45:29.704Z,18.30
2024-05-09T15:47:57.904Z,18.01
2024-05-09T15:50:35.307Z,18.17
2024-05-09T15:53:06.834Z,18.26
2024-05-09T15:55:34.889Z,18.00
2024-05-09T15:58:03.064Z,18.01
2024-05-09T16:00:37.826Z,17.99
2024-05-09T16:03:09.740Z,18.17
2024-05-09T16:05:37.613Z,18.05
2024-05-09T16:08:05.937Z,17.61
2024-05-09T16:10:34.563Z,17.91
2024-05-09T16:13:02.964Z,17.64
2024-05-09T16:15:30.690Z,17.82
2024-05-09T16:17:57.946Z,17.82
2024-05-09T16:20:34.635Z,17.47
2024-05-09T16:23:07.218Z,17.73
2024-05-09T16:25:34.234Z,17.67
2024-05-09T16:28:01.778Z,16.96
2024-05-09T16:30:34.564Z,17.20
2024-05-09T16:33:04.873Z,17.58
2024-05-09T16:35:32.835Z,17.37
2024-05-09T16:38:02.337Z,17.41
2024-05-09T16:40:36.870Z,17.65
2024-05-09T16:43:07.597Z,17.26
2024-05-09T16:45:35.093Z,17.13
2024-05-09T16:48:02.647Z,17.30
2024-05-09T16:50:34.217Z,17.16
2024-05-09T16:53:03.508Z,17.12
2024-05-09T16:55:31.115Z,16.65
2024-05-09T16:57:58.569Z,16.91
2024-05-09T17:00:35.784Z,16.82
2024-05-09T17:03:09.647Z,16.71
2024-05-09T17:05:37.352Z,16.75
2024-05-09T17:08:05.247Z,15.95
2024-05-09T17:10:34.393Z,16.30
2024-05-09T17:13:03.871Z,16.44
2024-05-09T17:15:32.651Z,16.53
2024-05-09T17:17:59.977Z,16.21
2024-05-09T17:20:33.027Z,16.38
2024-05-09T17:23:03.316Z,16.31
2024-05-09T17:25:30.288Z,15.97
2024-05-09T17:27:59.693Z,15.93
2024-05-09T17:30:32.492Z,16.08
2024-05-09T17:33:08.435Z,15.94
2024-05-09T17:35:36.709Z,15.84
2024-05-09T17:38:05.409Z,15.72
2024-05-09T17:40:35.872Z,15.43
2024-05-09T17:43:05.720Z,15.71
2024-05-09T17:45:33.594Z,15.61
2024-05-09T17:48:01.485Z,15.23
2024-05-09T17:50:35.197Z,15.35
2024-05-09T17:53:07.342Z,15.26
2024-05-09T17:55:34.983Z,15.31
2024-05-09T17:58:02.478Z,14.86
2024-05-09T18:00:37.463Z,14.73
2024-05-09T18:03:08.855Z,14.91
2024-05-09T18:05:37.085Z,14.31
2024-05-09T18:08:05.794Z,14.54
2024-05-09T18:10:37.169Z,14.21
2024-05-09T18:13:07.398Z,14.45
2024-05-09T18:15:35.014Z,14.30
2024-05-09T18:18:02.600Z,14.26
2024-05-09T18:20:38.158Z,14.07
2024-05-09T18:23:11.069Z,14.19
2024-05-09T18:25:38.118Z,13.83
2024-05-09T18:28:06.240Z,13.90
2024-05-09T18:30:36.318Z,13.92
2024-05-09T18:33:06.547Z,13.43
2024-05-09T18:35:34.882Z,13.48
2024-05-09T18:38:02.102Z,13.40
2024-05-09T18:40:34.347Z,13.35
2024-05-09T18:43:06.473Z,13.42
2024-05-09T18:45:35.198Z,12.85
2024-05-09T18:48:05.642Z,12.92
2024-05-09T18:50:37.320Z,13.01
2024-05-09T18:53:06.787Z,12.80
2024-05-09T18:55:33.843Z,12.66
2024-05-09T18:58:01.280Z,12.66
2024-05-09T19:00:34.691Z,12.34
2024-05-09T19:03:09.692Z,12.39
2024-05-09T19:05:39.049Z,12.09
2024-05-09T19:08:07.517Z,12.10
2024-05-09T19:10:36.004Z,12.24
2024-05-09T19:13:07.170Z,12.13
2024-05-09T19:15:38.767Z,12.03
2024-05-09T19:18:06.527Z,11.98
2024-05-09T19:20:35.501Z,11.68
2024-05-09T19:23:04.347Z,11.83
2024-05-09T19:25:32.167Z,11.58
2024-05-09T19:27:59.854Z,11.61
2024-05-09T19:30:36.421Z,11.65
2024-05-09T19:33:07.850Z,11.59
2024-05-09T19:35:34.929Z,11.49
2024-05-09T19:38:02.394Z,11.39
2024-05-09T19:40:32.261Z,11.32
2024-05-09T19:43:02.579Z,11.20
2024-05-09T19:45:30.451Z,11.14
2024-05-09T19:47:57.720Z,11.16
2024-05-09T19:50:32.574Z,11.07
2024-05-09T19:53:08.072Z,10.92
2024-05-09T19:55:35.275Z,11.13
2024-05-09T19:58:05.220Z,11.07
2024-05-09T20:00:39.615Z,11.08
2024-05-09T20:03:09.501Z,10.69
2024-05-09T20:05:37.500Z,10.48
2024-05-09T20:08:05.605Z,9.94
2024-05-09T20:10:35.078Z,10.59
2024-05-09T20:13:07.216Z,10.50
2024-05-09T20:15:36.751Z,10.61
2024-05-09T20:18:04.769Z,10.36
2024-05-09T20:20:38.222Z,10.49
2024-05-09T20:23:09.716Z,10.12
2024-05-09T20:25:36.978Z,10.37
2024-05-09T20:28:04.761Z,10.08
2024-05-09T20:30:34.380Z,10.18
2024-05-09T20:33:03.877Z,9.92
2024-05-09T20:35:32.555Z,10.36
2024-05-09T20:38:01.534Z,9.97
2024-05-09T20:40:33.576Z,9.77
2024-05-09T20:43:04.572Z,9.78
2024-05-09T20:45:31.892Z,9.74
2024-05-09T20:47:59.028Z,9.64
2024-05-09T20:50:36.147Z,9.48
2024-05-09T20:53:09.352Z,9.74
2024-05-09T20:55:36.852Z,9.65
2024-05-09T20:58:04.065Z,9.58
2024-05-09T21:00:39.286Z,9.46
2024-05-09T21:03:10.026Z,9.47
2024-05-09T21:05:37.337Z,9.20
2024-05-09T21:08:04.704Z,9.09
2024-05-09T21:10:33.573Z,9.29
2024-05-09T21:13:02.986Z,8.97
2024-05-09T21:15:30.821Z,9.11
2024-05-09T21:17:57.980Z,9.05
2024-05-09T21:20:31.013Z,8.99
2024-05-09T21:22:59.600Z,8.87
2024-05-09T21:25:26.620Z,8.82
2024-05-09T21:27:53.710Z,8.66
2024-05-09T21:32:51.482Z,8.64
2024-05-09T21:35:19.018Z,8.71
2024-05-09T21:37:45.995Z,8.64
2024-05-09T21:40:17.034Z,8.48
2024-05-09T21:42:52.345Z,8.41
2024-05-09T21:45:19.289Z,8.47
2024-05-09T21:47:46.337Z,8.18
2024-05-09T21:50:22.271Z,8.23
2024-05-09T21:52:54.168Z,8.09
2024-05-09T21:55:21.152Z,7.98
2024-05-09T21:57:48.174Z,7.82
2024-05-09T22:00:28.083Z,7.93
2024-05-09T22:03:02.295Z,7.48
2024-05-09T22:05:29.483Z,7.77
2024-05-09T22:07:57.247Z,7.77
2024-05-09T22:10:30.677Z,7.73
2024-05-09T22:13:01.673Z,7.78
2024-05-09T22:15:28.934Z,7.33
2024-05-09T22:17:57.512Z,7.69
2024-05-09T22:20:34.088Z,7.76
2024-05-09T22:23:05.000Z,7.55
2024-05-09T22:25:32.623Z,7.51
2024-05-09T22:28:00.928Z,7.52
2024-05-09T22:30:35.602Z,7.40
2024-05-09T22:33:07.205Z,7.35
2024-05-09T22:35:34.465Z,6.91
2024-05-09T22:38:03.041Z,7.49
2024-05-09T22:40:38.954Z,7.32
2024-05-09T22:43:14.021Z,6.87
2024-05-09T22:45:41.378Z,7.34
2024-05-09T22:48:09.380Z,7.27
2024-05-09T22:50:36.516Z,7.27
2024-05-09T22:53:03.644Z,7.09
2024-05-09T22:55:30.684Z,6.94
2024-05-09T22:57:57.660Z,7.08
2024-05-09T23:02:54.544Z,6.88
2024-05-09T23:05:21.680Z,6.78
2024-05-09T23:07:48.666Z,6.74
2024-05-09T23:10:21.420Z,6.79
2024-05-09T23:12:55.252Z,6.73
2024-05-09T23:15:22.280Z,6.82
2024-05-09T23:17:49.297Z,6.55
2024-05-09T23:20:22.082Z,6.28
2024-05-09T23:22:56.939Z,6.61
2024-05-09T23:25:24.029Z,6.25
2024-05-09T23:27:51.013Z,6.66
2024-05-09T23:30:28.452Z,6.66
2024-05-09T23:33:01.726Z,6.67
2024-05-09T23:35:28.764Z,6.58
2024-05-09T23:37:55.948Z,6.38
2024-05-09T23:40:23.851Z,6.23
2024-05-09T23:42:53.707Z,6.34
2024-05-09T23:45:20.736Z,6.34
2024-05-09T23:47:47.727Z,6.54
2024-05-09T23:50:20.517Z,6.31
2024-05-09T23:52:50.979Z,6.48
2024-05-09T23:55:18.253Z,6.39
2024-05-09T23:57:45.546Z,6.42
